CheckWX is a tool to help pilots better visualize weather data.  It is not intended as a substitute for an official pre-flight weather briefing.

08:27:47 UTC

KPVF METAR
Placerville Airport
Placerville, California, USA
Current

33 mins ago

KPVF 220755Z AUTO 02006G15KT 320V050 10SM CLR 02/M11 A2986 RMK AO1
Observed
Feb-22 @ 07:55 UTC
Wind
  • 020° at 6 KTS
  • Gusting to KTS
Visibility
10 SM
Flight Rules
VFR
Cloud Levels
  • Clear skies
Temperature
C / 36°F
Dewpoint
-11°C / 12°F
Humidity
38%
Altimeter
29.86" Hg
Pressure
1011.22 hPa
Previous

53 mins ago

KPVF 220735Z AUTO 05014G20KT 10SM CLR 02/M11 A2985 RMK AO1
Observed
Feb-22 @ 07:35 UTC
Wind
  • 050° at 14 KTS
  • Gusting to KTS
Visibility
10 SM
Flight Rules
VFR
Cloud Levels
  • Clear skies
Temperature
C / 36°F
Dewpoint
-11°C / 12°F
Humidity
38%
Altimeter
29.85" Hg
Pressure
1010.82 hPa
Previous

1 hour ago

KPVF 220715Z AUTO 36005KT 10SM CLR 02/M11 A2984 RMK AO1
Observed
Feb-22 @ 07:15 UTC
Wind
  • 360° at 5 KTS
Visibility
10 SM
Flight Rules
VFR
Cloud Levels
  • Clear skies
Temperature
C / 36°F
Dewpoint
-11°C / 12°F
Humidity
38%
Altimeter
29.84" Hg
Pressure
1010.52 hPa